createdAt,value
2023-05-03T00:00:44.736Z,1003.81
2023-05-03T00:01:44.763Z,1003.82
2023-05-03T00:02:45.135Z,1003.78
2023-05-03T00:03:44.701Z,1003.79
2023-05-03T00:04:44.735Z,1003.78
2023-05-03T00:05:44.704Z,1003.75
2023-05-03T00:06:44.709Z,1003.77
2023-05-03T00:07:44.665Z,1003.77
2023-05-03T00:08:44.650Z,1003.83
2023-05-03T00:09:44.654Z,1003.82
2023-05-03T00:10:44.646Z,1003.79
2023-05-03T00:11:44.686Z,1003.73
2023-05-03T00:12:44.624Z,1003.82
2023-05-03T00:13:44.596Z,1003.75
2023-05-03T00:14:44.600Z,1003.78
2023-05-03T00:15:44.576Z,1003.71
2023-05-03T00:16:44.605Z,1003.72
2023-05-03T00:17:44.618Z,1003.63
2023-05-03T00:18:44.549Z,1003.66
2023-05-03T00:19:44.551Z,1003.68
2023-05-03T00:20:44.519Z,1003.76
2023-05-03T00:21:44.507Z,1003.70
2023-05-03T00:22:44.519Z,1003.63
2023-05-03T00:23:44.488Z,1003.64
2023-05-03T00:24:44.493Z,1003.71
2023-05-03T00:25:44.478Z,1003.65
2023-05-03T00:26:44.458Z,1003.59
2023-05-03T00:27:44.455Z,1003.56
2023-05-03T00:28:44.456Z,1003.56
2023-05-03T00:29:44.455Z,1003.63
2023-05-03T00:30:44.450Z,1003.59
2023-05-03T00:31:44.446Z,1003.63
2023-05-03T00:32:44.422Z,1003.60
2023-05-03T00:33:44.388Z,1003.63
2023-05-03T00:34:44.388Z,1003.60
2023-05-03T00:35:44.372Z,1003.73
2023-05-03T00:36:44.358Z,1003.73
2023-05-03T00:37:44.347Z,1003.64
2023-05-03T00:38:44.339Z,1003.61
2023-05-03T00:39:44.333Z,1003.65
2023-05-03T00:40:44.312Z,1003.64
2023-05-03T00:41:44.300Z,1003.67
2023-05-03T00:42:44.293Z,1003.62
2023-05-03T00:43:44.296Z,1003.67
2023-05-03T00:44:44.348Z,1003.56
2023-05-03T00:45:44.279Z,1003.62
2023-05-03T00:46:44.296Z,1003.57
2023-05-03T00:47:44.363Z,1003.57
2023-05-03T00:48:44.234Z,1003.59
2023-05-03T00:49:44.257Z,1003.65
2023-05-03T00:50:44.213Z,1003.54
2023-05-03T00:51:44.199Z,1003.57
2023-05-03T00:52:44.193Z,1003.58
2023-05-03T00:53:44.176Z,1003.51
2023-05-03T00:54:44.177Z,1003.67
2023-05-03T00:55:44.152Z,1003.55
2023-05-03T00:56:51.605Z,1003.66
2023-05-03T00:57:45.140Z,1003.61
2023-05-03T00:58:44.131Z,1003.61
2023-05-03T00:59:44.121Z,1003.63
2023-05-03T01:00:44.128Z,1003.64
2023-05-03T01:01:44.139Z,1003.56
2023-05-03T01:02:44.182Z,1003.52
2023-05-03T01:03:44.182Z,1003.56
2023-05-03T01:04:44.094Z,1003.53
2023-05-03T01:05:44.050Z,1003.57
2023-05-03T01:06:44.077Z,1003.68
2023-05-03T01:07:44.031Z,1003.64
2023-05-03T01:08:44.025Z,1003.71
2023-05-03T01:09:44.021Z,1003.64
2023-05-03T01:10:44.000Z,1003.70
2023-05-03T01:11:43.992Z,1003.73
2023-05-03T01:12:43.980Z,1003.69
2023-05-03T01:13:43.996Z,1003.58
2023-05-03T01:14:43.973Z,1003.62
2023-05-03T01:15:43.977Z,1003.58
2023-05-03T01:16:44.010Z,1003.63
2023-05-03T01:17:43.930Z,1003.64
2023-05-03T01:18:43.923Z,1003.68
2023-05-03T01:19:43.915Z,1003.62
2023-05-03T01:20:43.913Z,1003.66
2023-05-03T01:21:43.881Z,1003.71
2023-05-03T01:22:43.877Z,1003.69
2023-05-03T01:23:43.876Z,1003.64
2023-05-03T01:24:43.862Z,1003.62
2023-05-03T01:25:43.842Z,1003.63
2023-05-03T01:26:43.832Z,1003.62
2023-05-03T01:27:43.870Z,1003.66
2023-05-03T01:28:43.813Z,1003.64
2023-05-03T01:29:43.811Z,1003.66
2023-05-03T01:30:43.792Z,1003.68
2023-05-03T01:31:43.802Z,1003.75
2023-05-03T01:32:43.846Z,1003.69
2023-05-03T01:33:43.757Z,1003.73
2023-05-03T01:34:44.877Z,1003.75
2023-05-03T01:35:44.859Z,1003.73
2023-05-03T01:36:44.852Z,1003.76
2023-05-03T01:37:44.845Z,1003.60
2023-05-03T01:38:44.831Z,1003.61
2023-05-03T01:39:44.856Z,1003.64
2023-05-03T01:40:44.815Z,1003.57
2023-05-03T01:41:44.804Z,1003.61
2023-05-03T01:42:44.794Z,1003.70
2023-05-03T01:43:44.783Z,1003.69
2023-05-03T01:44:44.785Z,1003.83
2023-05-03T01:45:44.772Z,1003.71
2023-05-03T01:46:44.753Z,1003.65
2023-05-03T01:47:44.770Z,1003.67
2023-05-03T01:48:44.746Z,1003.77
2023-05-03T01:49:44.756Z,1003.75
2023-05-03T01:50:44.751Z,1003.80
2023-05-03T01:51:44.704Z,1003.65
2023-05-03T01:52:44.692Z,1003.65
2023-05-03T01:53:44.681Z,1003.74
2023-05-03T01:54:44.709Z,1003.64
2023-05-03T01:55:44.702Z,1003.60
2023-05-03T01:56:44.663Z,1003.57
2023-05-03T01:57:44.650Z,1003.64
2023-05-03T01:58:44.647Z,1003.51
2023-05-03T01:59:44.661Z,1003.66
2023-05-03T02:00:44.641Z,1003.60
2023-05-03T02:01:44.676Z,1003.57
2023-05-03T02:02:44.626Z,1003.65
2023-05-03T02:03:45.619Z,1003.59
2023-05-03T02:04:44.607Z,1003.64
2023-05-03T02:05:44.584Z,1003.73
2023-05-03T02:06:44.635Z,1003.76
2023-05-03T02:07:44.553Z,1003.69
2023-05-03T02:08:44.543Z,1003.73
2023-05-03T02:09:44.538Z,1003.73
2023-05-03T02:10:44.516Z,1003.79
2023-05-03T02:11:44.514Z,1003.63
2023-05-03T02:12:44.503Z,1003.71
2023-05-03T02:13:44.492Z,1003.61
2023-05-03T02:14:44.488Z,1003.70
2023-05-03T02:15:44.470Z,1003.72
2023-05-03T02:16:44.507Z,1003.75
2023-05-03T02:17:44.475Z,1003.72
2023-05-03T02:18:44.443Z,1003.79
2023-05-03T02:19:44.456Z,1003.79
2023-05-03T02:20:44.433Z,1003.84
2023-05-03T02:21:44.408Z,1003.78
2023-05-03T02:22:44.398Z,1003.75
2023-05-03T02:23:44.402Z,1003.74
2023-05-03T02:24:44.409Z,1003.80
2023-05-03T02:25:44.382Z,1003.69
2023-05-03T02:26:44.378Z,1003.74
2023-05-03T02:27:44.354Z,1003.75
2023-05-03T02:28:44.346Z,1003.81
2023-05-03T02:29:44.348Z,1003.81
2023-05-03T02:30:44.375Z,1003.76
2023-05-03T02:31:44.318Z,1003.73
2023-05-03T02:32:44.351Z,1003.76
2023-05-03T02:33:44.295Z,1003.81
2023-05-03T02:34:44.299Z,1003.80
2023-05-03T02:35:44.287Z,1003.77
2023-05-03T02:36:44.263Z,1003.75
2023-05-03T02:37:44.259Z,1003.87
2023-05-03T02:38:44.255Z,1003.84
2023-05-03T02:39:44.253Z,1003.72
2023-05-03T02:40:44.248Z,1003.77
2023-05-03T02:41:44.229Z,1003.75
2023-05-03T02:42:44.218Z,1003.82
2023-05-03T02:43:44.195Z,1003.86
2023-05-03T02:44:44.217Z,1003.83
2023-05-03T02:45:44.189Z,1003.84
2023-05-03T02:46:44.203Z,1003.85
2023-05-03T02:47:44.204Z,1003.84
2023-05-03T02:48:44.161Z,1003.80
2023-05-03T02:49:44.168Z,1003.78
2023-05-03T02:50:44.136Z,1003.83
2023-05-03T02:51:44.128Z,1003.88
2023-05-03T02:52:44.124Z,1003.75
2023-05-03T02:53:44.116Z,1003.89
2023-05-03T02:54:44.114Z,1003.77
2023-05-03T02:55:44.093Z,1003.84
2023-05-03T02:56:44.079Z,1003.81
2023-05-03T02:57:44.068Z,1003.75
2023-05-03T02:58:44.071Z,1003.74
2023-05-03T02:59:44.060Z,1003.74
2023-05-03T03:00:44.048Z,1003.78
2023-05-03T03:01:44.106Z,1003.82
2023-05-03T03:02:44.168Z,1003.75
2023-05-03T03:03:44.101Z,1003.79
2023-05-03T03:04:44.025Z,1003.83
2023-05-03T03:05:43.990Z,1003.79
2023-05-03T03:06:44.014Z,1003.87
2023-05-03T03:07:44.987Z,1003.80
2023-05-03T03:08:43.967Z,1003.78
2023-05-03T03:09:43.955Z,1003.83
2023-05-03T03:10:43.961Z,1003.81
2023-05-03T03:11:43.933Z,1003.82
2023-05-03T03:12:43.943Z,1003.88
2023-05-03T03:13:43.922Z,1003.88
2023-05-03T03:14:43.912Z,1003.84
2023-05-03T03:15:43.935Z,1003.88
2023-05-03T03:16:43.887Z,1003.97
2023-05-03T03:17:43.953Z,1003.99
2023-05-03T03:18:43.867Z,1004.00
2023-05-03T03:19:43.865Z,1003.95
2023-05-03T03:20:43.872Z,1004.01
2023-05-03T03:21:43.839Z,1004.01
2023-05-03T03:22:43.842Z,1003.99
2023-05-03T03:23:43.821Z,1004.03
2023-05-03T03:24:43.809Z,1003.99
2023-05-03T03:25:43.795Z,1003.96
2023-05-03T03:26:43.789Z,1004.02
2023-05-03T03:27:43.787Z,1004.18
2023-05-03T03:28:43.774Z,1004.05
2023-05-03T03:29:43.761Z,1004.16
2023-05-03T03:30:43.773Z,1004.14
2023-05-03T03:31:43.791Z,1004.18
2023-05-03T03:32:43.832Z,1004.06
2023-05-03T03:33:43.717Z,1004.08
2023-05-03T03:34:43.742Z,1004.14
2023-05-03T03:35:43.704Z,1004.10
2023-05-03T03:36:43.699Z,1004.14
2023-05-03T03:37:43.690Z,1004.07
2023-05-03T03:38:43.682Z,1004.09
2023-05-03T03:39:43.663Z,1004.04
2023-05-03T03:40:43.669Z,1004.06
2023-05-03T03:41:43.644Z,1004.00
2023-05-03T03:42:43.643Z,1004.05
2023-05-03T03:43:43.622Z,1004.03
2023-05-03T03:44:43.650Z,1004.02
2023-05-03T03:45:43.607Z,1004.07
2023-05-03T03:46:43.679Z,1004.08
2023-05-03T03:47:43.612Z,1004.11
2023-05-03T03:48:43.575Z,1004.06
2023-05-03T03:49:43.591Z,1004.11
2023-05-03T03:50:43.563Z,1004.02
2023-05-03T03:51:43.556Z,1004.04
2023-05-03T03:52:43.549Z,1004.07
2023-05-03T03:53:43.551Z,1004.01
2023-05-03T03:54:43.537Z,1004.12
2023-05-03T03:55:43.514Z,1004.12
2023-05-03T03:56:43.538Z,1004.15
2023-05-03T03:57:43.496Z,1004.02
2023-05-03T03:58:43.500Z,1003.98
2023-05-03T03:59:43.496Z,1004.04
2023-05-03T04:00:43.478Z,1003.92
2023-05-03T04:01:43.494Z,1003.93
2023-05-03T04:02:43.529Z,1003.95
2023-05-03T04:03:43.553Z,1003.93
2023-05-03T04:04:43.445Z,1004.05
2023-05-03T04:05:43.418Z,1004.02
2023-05-03T04:06:43.464Z,1004.13
2023-05-03T04:07:43.424Z,1004.08
2023-05-03T04:08:43.417Z,1003.94
2023-05-03T04:09:43.411Z,1003.94
2023-05-03T04:10:43.382Z,1003.95
2023-05-03T04:11:43.369Z,1003.98
2023-05-03T04:12:43.352Z,1004.03
2023-05-03T04:13:43.362Z,1004.04
2023-05-03T04:14:43.345Z,1004.02
2023-05-03T04:15:43.344Z,1004.11
2023-05-03T04:16:43.368Z,1004.02
2023-05-03T04:17:43.360Z,1004.01
2023-05-03T04:18:43.299Z,1004.04
2023-05-03T04:19:43.281Z,1004.01
2023-05-03T04:20:43.301Z,1003.97
2023-05-03T04:21:43.271Z,1003.94
2023-05-03T04:22:43.260Z,1004.01
2023-05-03T04:23:43.241Z,1004.04
2023-05-03T04:24:43.231Z,1004.08
2023-05-03T04:25:43.241Z,1004.08
2023-05-03T04:26:43.213Z,1004.04
2023-05-03T04:27:43.216Z,1004.08
2023-05-03T04:28:43.207Z,1004.07
2023-05-03T04:29:43.197Z,1004.16
2023-05-03T04:30:43.248Z,1004.11
2023-05-03T04:31:43.169Z,1004.25
2023-05-03T04:32:43.217Z,1004.22
2023-05-03T04:33:43.147Z,1004.16
2023-05-03T04:34:43.138Z,1004.13
2023-05-03T04:35:43.142Z,1004.23
2023-05-03T04:36:43.112Z,1004.24
2023-05-03T04:37:43.108Z,1004.24
2023-05-03T04:38:43.116Z,1004.18
2023-05-03T04:39:43.092Z,1004.22
2023-05-03T04:40:43.095Z,1004.29
2023-05-03T04:41:43.086Z,1004.28
2023-05-03T04:42:43.069Z,1004.29
2023-05-03T04:43:43.070Z,1004.37
2023-05-03T04:44:43.055Z,1004.39
2023-05-03T04:45:43.031Z,1004.35
2023-05-03T04:46:43.054Z,1004.31
2023-05-03T04:47:43.077Z,1004.41
2023-05-03T04:48:43.004Z,1004.31
2023-05-03T04:49:42.983Z,1004.31
2023-05-03T04:50:42.990Z,1004.27
2023-05-03T04:51:42.983Z,1004.34
2023-05-03T04:52:42.967Z,1004.35
2023-05-03T04:53:42.956Z,1004.40
2023-05-03T04:54:42.951Z,1004.29
2023-05-03T04:55:42.961Z,1004.35
2023-05-03T04:56:43.002Z,1004.46
2023-05-03T04:57:42.930Z,1004.35
2023-05-03T04:58:42.914Z,1004.34
2023-05-03T04:59:42.891Z,1004.36
2023-05-03T05:00:42.877Z,1004.35
2023-05-03T05:01:42.981Z,1004.29
2023-05-03T05:02:42.889Z,1004.36
2023-05-03T05:03:42.965Z,1004.41
2023-05-03T05:04:42.840Z,1004.38
2023-05-03T05:05:42.832Z,1004.37
2023-05-03T05:06:42.829Z,1004.41
2023-05-03T05:07:42.887Z,1004.31
2023-05-03T05:08:42.791Z,1004.32
2023-05-03T05:09:42.786Z,1004.41
2023-05-03T05:10:42.789Z,1004.37
2023-05-03T05:11:42.762Z,1004.34
2023-05-03T05:12:42.751Z,1004.35
2023-05-03T05:13:42.750Z,1004.32
2023-05-03T05:14:42.742Z,1004.37
2023-05-03T05:15:42.729Z,1004.30
2023-05-03T05:16:42.774Z,1004.29
2023-05-03T05:17:42.784Z,1004.31
2023-05-03T05:18:42.684Z,1004.32
2023-05-03T05:19:42.690Z,1004.32
2023-05-03T05:20:42.673Z,1004.33
2023-05-03T05:21:42.674Z,1004.35
2023-05-03T05:22:42.642Z,1004.27
2023-05-03T05:23:42.728Z,1004.32
2023-05-03T05:24:42.631Z,1004.33
2023-05-03T05:25:42.633Z,1004.27
2023-05-03T05:26:42.626Z,1004.43
2023-05-03T05:27:42.607Z,1004.28
2023-05-03T05:28:42.597Z,1004.42
2023-05-03T05:29:42.598Z,1004.34
2023-05-03T05:30:42.572Z,1004.36
2023-05-03T05:31:42.602Z,1004.45
2023-05-03T05:32:42.601Z,1004.31
2023-05-03T05:33:42.532Z,1004.35
2023-05-03T05:34:45.557Z,1004.40
2023-05-03T05:35:43.528Z,1004.35
2023-05-03T05:36:42.536Z,1004.34
2023-05-03T05:37:42.491Z,1004.42
2023-05-03T05:38:42.491Z,1004.31
2023-05-03T05:39:42.556Z,1004.45
2023-05-03T05:40:42.485Z,1004.41
2023-05-03T05:41:42.545Z,1004.42
2023-05-03T05:42:42.478Z,1004.48
2023-05-03T05:43:42.455Z,1004.42
2023-05-03T05:44:42.452Z,1004.48
2023-05-03T05:45:42.476Z,1004.46
2023-05-03T05:46:42.496Z,1004.47
2023-05-03T05:47:42.453Z,1004.52
2023-05-03T05:48:42.419Z,1004.49
2023-05-03T05:49:42.403Z,1004.54
2023-05-03T05:50:42.380Z,1004.48
2023-05-03T05:51:42.409Z,1004.50
2023-05-03T05:52:42.380Z,1004.51
2023-05-03T05:53:42.356Z,1004.54
2023-05-03T05:54:42.347Z,1004.57
2023-05-03T05:55:42.352Z,1004.60
2023-05-03T05:56:42.332Z,1004.44
2023-05-03T05:57:42.344Z,1004.44
2023-05-03T05:58:42.322Z,1004.50
2023-05-03T05:59:42.318Z,1004.47
2023-05-03T06:00:42.283Z,1004.38
2023-05-03T06:01:42.294Z,1004.37
2023-05-03T06:02:42.417Z,1004.38
2023-05-03T06:03:42.249Z,1004.51
2023-05-03T06:04:42.292Z,1004.51
2023-05-03T06:05:42.551Z,1004.51
2023-05-03T06:06:42.251Z,1004.48
2023-05-03T06:07:42.195Z,1004.44
2023-05-03T06:08:42.186Z,1004.45
2023-05-03T06:09:42.208Z,1004.45
2023-05-03T06:10:42.288Z,1004.44
2023-05-03T06:11:42.173Z,1004.41
2023-05-03T06:12:42.161Z,1004.47
2023-05-03T06:13:42.157Z,1004.43
2023-05-03T06:14:48.963Z,1004.37
2023-05-03T06:15:44.207Z,1004.40
2023-05-03T06:16:42.187Z,1004.43
2023-05-03T06:17:42.245Z,1004.39
2023-05-03T06:18:42.201Z,1004.39
2023-05-03T06:19:44.412Z,1004.39
2023-05-03T06:20:42.148Z,1004.35
2023-05-03T06:21:42.112Z,1004.38
2023-05-03T06:22:42.125Z,1004.35
2023-05-03T06:23:42.083Z,1004.38
2023-05-03T06:24:42.116Z,1004.29
2023-05-03T06:25:42.078Z,1004.30
2023-05-03T06:26:42.098Z,1004.36
2023-05-03T06:27:42.075Z,1004.35
2023-05-03T06:28:42.062Z,1004.27
2023-05-03T06:29:42.029Z,1004.35
2023-05-03T06:30:42.144Z,1004.34
2023-05-03T06:31:42.101Z,1004.29
2023-05-03T06:32:42.061Z,1004.28
2023-05-03T06:33:42.022Z,1004.31
2023-05-03T06:34:41.991Z,1004.34
2023-05-03T06:35:41.955Z,1004.33
2023-05-03T06:36:41.997Z,1004.24
2023-05-03T06:37:41.919Z,1004.26
2023-05-03T06:38:41.924Z,1004.33
2023-05-03T06:39:41.943Z,1004.29
2023-05-03T06:40:41.949Z,1004.27
2023-05-03T06:41:41.914Z,1004.27
2023-05-03T06:42:41.845Z,1004.17
2023-05-03T06:43:41.949Z,1004.23
2023-05-03T06:44:41.829Z,1004.28
2023-05-03T06:45:41.828Z,1004.30
2023-05-03T06:46:41.846Z,1004.27
2023-05-03T06:47:41.838Z,1004.23
2023-05-03T06:48:41.842Z,1004.25
2023-05-03T06:49:41.768Z,1004.19
2023-05-03T06:50:41.763Z,1004.23
2023-05-03T06:51:41.773Z,1004.31
2023-05-03T06:52:41.735Z,1004.31
2023-05-03T06:53:41.731Z,1004.20
2023-05-03T06:54:41.741Z,1004.16
2023-05-03T06:55:41.720Z,1004.19
2023-05-03T06:56:41.711Z,1004.21
2023-05-03T06:57:41.749Z,1004.20
2023-05-03T06:58:41.703Z,1004.20
2023-05-03T06:59:42.620Z,1004.20
2023-05-03T07:00:41.686Z,1004.21
2023-05-03T07:01:41.757Z,1004.21
2023-05-03T07:02:41.780Z,1004.14
2023-05-03T07:03:42.097Z,1004.14
2023-05-03T07:04:42.652Z,1004.15
2023-05-03T07:05:41.670Z,1004.19
2023-05-03T07:06:55.394Z,1004.11
2023-05-03T07:07:43.628Z,1004.21
2023-05-03T07:08:41.626Z,1004.14
2023-05-03T07:09:43.501Z,1004.10
2023-05-03T07:10:42.591Z,1004.16
2023-05-03T07:11:41.604Z,1004.16
2023-05-03T07:12:41.618Z,1004.12
2023-05-03T07:13:41.573Z,1004.20
2023-05-03T07:14:41.590Z,1004.19
2023-05-03T07:15:41.632Z,1004.11
2023-05-03T07:16:41.571Z,1004.20
2023-05-03T07:17:41.586Z,1004.14
2023-05-03T07:18:42.563Z,1004.18
2023-05-03T07:19:41.530Z,1004.15
2023-05-03T07:20:41.517Z,1004.15
2023-05-03T07:21:41.495Z,1004.15
2023-05-03T07:22:41.509Z,1004.17
2023-05-03T07:23:41.489Z,1004.21
2023-05-03T07:24:41.484Z,1004.08
2023-05-03T07:25:41.450Z,1004.18
2023-05-03T07:26:43.642Z,1004.12
2023-05-03T07:27:41.463Z,1004.10
2023-05-03T07:28:41.454Z,1004.16
2023-05-03T07:29:41.530Z,1004.18
2023-05-03T07:30:41.390Z,1004.23
2023-05-03T07:31:41.715Z,1004.16
2023-05-03T07:32:41.467Z,1004.19
2023-05-03T07:33:41.489Z,1004.17
2023-05-03T07:34:41.344Z,1004.19
2023-05-03T07:35:41.346Z,1004.17
2023-05-03T07:36:41.421Z,1004.11
2023-05-03T07:37:41.340Z,1004.18
2023-05-03T07:38:41.356Z,1004.22
2023-05-03T07:39:41.331Z,1004.21
2023-05-03T07:40:41.305Z,1004.14
2023-05-03T07:41:41.326Z,1004.16
2023-05-03T07:42:41.274Z,1004.12
2023-05-03T07:43:41.525Z,1004.13
2023-05-03T07:44:41.291Z,1004.20
2023-05-03T07:45:41.322Z,1004.07
2023-05-03T07:46:41.269Z,1004.06
2023-05-03T07:47:41.287Z,1004.02
2023-05-03T07:48:42.708Z,1004.08
2023-05-03T07:49:41.242Z,1004.06
2023-05-03T07:50:41.235Z,1004.10
2023-05-03T07:51:41.215Z,1004.14
2023-05-03T07:52:41.198Z,1004.01
2023-05-03T07:53:41.178Z,1003.97
2023-05-03T07:54:41.178Z,1003.97
2023-05-03T07:55:41.185Z,1004.05
2023-05-03T07:56:41.142Z,1003.92
2023-05-03T07:57:41.170Z,1003.98
2023-05-03T07:58:42.460Z,1003.99
2023-05-03T07:59:42.125Z,1003.95
2023-05-03T08:00:41.130Z,1003.99
2023-05-03T08:01:41.119Z,1003.93
2023-05-03T08:02:41.281Z,1003.96
2023-05-03T08:03:41.327Z,1003.93
2023-05-03T08:04:41.334Z,1003.95
2023-05-03T08:05:41.141Z,1003.97
2023-05-03T08:06:41.158Z,1004.03
2023-05-03T08:07:41.056Z,1003.99
2023-05-03T08:08:41.014Z,1003.98
2023-05-03T08:09:41.030Z,1004.06
2023-05-03T08:10:41.046Z,1004.07
2023-05-03T08:11:43.767Z,1004.05
2023-05-03T08:12:41.026Z,1004.01
2023-05-03T08:13:40.990Z,1004.01
2023-05-03T08:14:40.961Z,1004.09
2023-05-03T08:15:41.005Z,1004.02
2023-05-03T08:16:41.014Z,1004.13
2023-05-03T08:17:40.965Z,1004.02
2023-05-03T08:18:40.944Z,1004.02
2023-05-03T08:19:41.125Z,1004.05
2023-05-03T08:20:40.921Z,1004.13
2023-05-03T08:21:40.911Z,1004.04
2023-05-03T08:22:40.872Z,1004.04
2023-05-03T08:23:40.887Z,1004.04
2023-05-03T08:24:40.867Z,1004.06
2023-05-03T08:25:40.861Z,1004.03
2023-05-03T08:26:41.916Z,1003.99
2023-05-03T08:27:40.859Z,1004.01
2023-05-03T08:28:40.820Z,1003.97
2023-05-03T08:29:40.817Z,1003.94
2023-05-03T08:30:40.831Z,1003.96
2023-05-03T08:31:40.835Z,1004.00
2023-05-03T08:32:41.741Z,1003.96
2023-05-03T08:33:40.804Z,1003.96
2023-05-03T08:34:40.797Z,1003.94
2023-05-03T08:35:40.808Z,1003.99
2023-05-03T08:36:40.770Z,1003.86
2023-05-03T08:37:40.837Z,1003.90
2023-05-03T08:38:40.781Z,1003.90
2023-05-03T08:39:40.708Z,1003.92
2023-05-03T08:40:40.717Z,1003.82
2023-05-03T08:41:40.706Z,1003.85
2023-05-03T08:42:40.739Z,1003.83
2023-05-03T08:43:40.714Z,1003.77
2023-05-03T08:44:40.670Z,1003.77
2023-05-03T08:45:40.711Z,1003.77
2023-05-03T08:46:40.695Z,1003.67
2023-05-03T08:47:40.680Z,1003.71
2023-05-03T08:48:40.616Z,1003.72
2023-05-03T08:49:40.661Z,1003.72
2023-05-03T08:50:40.616Z,1003.71
2023-05-03T08:51:40.629Z,1003.78
2023-05-03T08:52:40.730Z,1003.80
2023-05-03T08:53:40.557Z,1003.85
2023-05-03T08:54:40.555Z,1003.72
2023-05-03T08:55:40.584Z,1003.68
2023-05-03T08:56:40.563Z,1003.75
2023-05-03T08:57:40.624Z,1003.72
2023-05-03T08:58:40.557Z,1003.79
2023-05-03T08:59:40.533Z,1003.74
2023-05-03T09:00:40.508Z,1003.75
2023-05-03T09:01:40.593Z,1003.77
2023-05-03T09:02:40.624Z,1003.71
2023-05-03T09:03:40.554Z,1003.75
2023-05-03T09:04:40.474Z,1003.85
2023-05-03T09:05:40.477Z,1003.75
2023-05-03T09:06:40.486Z,1003.69
2023-05-03T09:07:40.448Z,1003.79
2023-05-03T09:08:40.393Z,1003.81
2023-05-03T09:09:40.445Z,1003.71
2023-05-03T09:10:40.459Z,1003.76
2023-05-03T09:11:40.424Z,1003.77
2023-05-03T09:12:40.461Z,1003.75
2023-05-03T09:13:40.385Z,1003.74
2023-05-03T09:14:40.514Z,1003.83
2023-05-03T09:15:40.386Z,1003.78
2023-05-03T09:16:40.410Z,1003.74
2023-05-03T09:17:40.396Z,1003.77
2023-05-03T09:18:40.323Z,1003.78
2023-05-03T09:19:40.344Z,1003.76
2023-05-03T09:20:40.367Z,1003.82
2023-05-03T09:21:40.305Z,1003.77
2023-05-03T09:22:40.290Z,1003.80
2023-05-03T09:23:40.379Z,1003.71
2023-05-03T09:24:40.301Z,1003.75
2023-05-03T09:25:40.249Z,1003.76
2023-05-03T09:26:40.361Z,1003.64
2023-05-03T09:27:40.250Z,1003.70
2023-05-03T09:28:41.243Z,1003.62
2023-05-03T09:29:40.221Z,1003.71
2023-05-03T09:30:40.246Z,1003.69
2023-05-03T09:31:40.240Z,1003.64
2023-05-03T09:32:40.208Z,1003.69
2023-05-03T09:33:40.195Z,1003.65
2023-05-03T09:34:40.225Z,1003.72
2023-05-03T09:35:40.158Z,1003.67
2023-05-03T09:36:40.184Z,1003.71
2023-05-03T09:37:40.171Z,1003.71
2023-05-03T09:38:40.146Z,1003.69
2023-05-03T09:39:40.166Z,1003.73
2023-05-03T09:40:40.138Z,1003.71
2023-05-03T09:41:40.102Z,1003.69
2023-05-03T09:42:40.110Z,1003.70
2023-05-03T09:43:40.092Z,1003.67
2023-05-03T09:44:40.097Z,1003.59
2023-05-03T09:45:40.097Z,1003.66
2023-05-03T09:46:40.048Z,1003.59
2023-05-03T09:47:40.132Z,1003.66
2023-05-03T09:48:40.038Z,1003.70
2023-05-03T09:49:40.069Z,1003.60
2023-05-03T09:50:40.074Z,1003.57
2023-05-03T09:51:40.031Z,1003.56
2023-05-03T09:52:39.983Z,1003.49
2023-05-03T09:53:39.990Z,1003.58
2023-05-03T09:54:39.959Z,1003.55
2023-05-03T09:55:39.983Z,1003.44
2023-05-03T09:56:39.981Z,1003.49
2023-05-03T09:57:39.930Z,1003.53
2023-05-03T09:58:39.981Z,1003.53
2023-05-03T09:59:40.057Z,1003.55
2023-05-03T10:00:39.901Z,1003.65
2023-05-03T10:01:39.982Z,1003.54
2023-05-03T10:02:40.023Z,1003.59
2023-05-03T10:03:39.958Z,1003.58
2023-05-03T10:04:39.914Z,1003.58
2023-05-03T10:05:39.858Z,1003.47
2023-05-03T10:06:39.909Z,1003.46
2023-05-03T10:07:39.855Z,1003.47
2023-05-03T10:08:39.843Z,1003.45
2023-05-03T10:09:39.817Z,1003.44
2023-05-03T10:10:39.824Z,1003.40
2023-05-03T10:11:39.775Z,1003.32
2023-05-03T10:12:39.820Z,1003.33
2023-05-03T10:13:39.764Z,1003.34
2023-05-03T10:14:39.800Z,1003.36
2023-05-03T10:15:39.837Z,1003.38
2023-05-03T10:16:39.793Z,1003.37
2023-05-03T10:18:40.742Z,1003.40
2023-05-03T10:19:39.830Z,1003.41
2023-05-03T10:20:39.731Z,1003.39
2023-05-03T10:21:39.673Z,1003.37
2023-05-03T10:22:39.713Z,1003.37
2023-05-03T10:23:39.680Z,1003.35
2023-05-03T10:24:39.679Z,1003.32
2023-05-03T10:25:39.649Z,1003.35
2023-05-03T10:26:39.634Z,1003.36
2023-05-03T10:27:39.654Z,1003.35
2023-05-03T10:28:39.649Z,1003.30
2023-05-03T10:29:39.607Z,1003.35
2023-05-03T10:30:39.591Z,1003.34
2023-05-03T10:31:39.631Z,1003.39
2023-05-03T10:32:39.649Z,1003.41
2023-05-03T10:33:39.550Z,1003.34
2023-05-03T10:34:39.527Z,1003.30
2023-05-03T10:35:39.538Z,1003.29
2023-05-03T10:36:48.948Z,1003.33
2023-05-03T10:37:41.557Z,1003.34
2023-05-03T10:38:45.611Z,1003.26
2023-05-03T10:39:40.516Z,1003.17
2023-05-03T10:40:39.496Z,1003.21
2023-05-03T10:41:39.452Z,1003.17
2023-05-03T10:42:39.458Z,1003.22
2023-05-03T10:43:39.437Z,1003.18
2023-05-03T10:44:39.448Z,1003.23
2023-05-03T10:45:39.422Z,1003.18
2023-05-03T10:46:39.446Z,1003.22
2023-05-03T10:47:39.429Z,1003.20
2023-05-03T10:48:39.428Z,1003.16
2023-05-03T10:49:39.367Z,1003.22
2023-05-03T10:50:39.442Z,1003.25
2023-05-03T10:51:39.402Z,1003.22
2023-05-03T10:52:39.417Z,1003.25
2023-05-03T10:53:39.399Z,1003.30
2023-05-03T10:54:39.356Z,1003.30
2023-05-03T10:55:39.343Z,1003.30
2023-05-03T10:56:39.349Z,1003.29
2023-05-03T10:57:40.337Z,1003.25
2023-05-03T10:58:40.361Z,1003.22
2023-05-03T10:59:39.395Z,1003.23
2023-05-03T11:00:39.330Z,1003.26
2023-05-03T11:01:39.337Z,1003.30
2023-05-03T11:02:39.320Z,1003.20
2023-05-03T11:03:39.277Z,1003.16
2023-05-03T11:04:39.308Z,1003.18
2023-05-03T11:05:41.019Z,1003.05
2023-05-03T11:06:39.259Z,1003.11
2023-05-03T11:07:39.199Z,1003.12
2023-05-03T11:08:39.192Z,1003.11
2023-05-03T11:09:39.226Z,1003.06
2023-05-03T11:10:39.185Z,1003.08
2023-05-03T11:11:39.143Z,1003.10
2023-05-03T11:12:39.154Z,1003.06
2023-05-03T11:13:39.230Z,1003.01
2023-05-03T11:14:39.140Z,1003.08
2023-05-03T11:15:39.130Z,1003.08
2023-05-03T11:16:39.177Z,1002.95
2023-05-03T11:17:39.156Z,1003.05
2023-05-03T11:18:39.129Z,1003.04
2023-05-03T11:19:39.049Z,1002.97
2023-05-03T11:20:40.057Z,1003.07
2023-05-03T11:21:39.040Z,1003.00
2023-05-03T11:22:39.073Z,1003.04
2023-05-03T11:23:39.105Z,1003.03
2023-05-03T11:24:39.029Z,1002.95
2023-05-03T11:25:39.016Z,1003.00
2023-05-03T11:26:39.016Z,1002.99
2023-05-03T11:27:39.054Z,1002.91
2023-05-03T11:28:38.992Z,1002.99
2023-05-03T11:29:39.039Z,1002.99
2023-05-03T11:30:38.993Z,1002.96
2023-05-03T11:31:39.080Z,1002.91
2023-05-03T11:32:39.065Z,1003.01
2023-05-03T11:33:39.062Z,1003.03
2023-05-03T11:34:38.965Z,1002.98
2023-05-03T11:35:38.955Z,1003.10
2023-05-03T11:36:38.946Z,1003.11
2023-05-03T11:37:38.914Z,1003.04
2023-05-03T11:38:39.011Z,1002.99
2023-05-03T11:39:38.939Z,1002.97
2023-05-03T11:40:38.909Z,1002.99
2023-05-03T11:41:38.932Z,1003.02
2023-05-03T11:42:38.878Z,1002.98
2023-05-03T11:43:38.874Z,1002.99
2023-05-03T11:44:38.872Z,1003.00
2023-05-03T11:45:38.915Z,1002.96
2023-05-03T11:46:39.049Z,1002.97
2023-05-03T11:47:38.959Z,1002.93
2023-05-03T11:48:38.939Z,1002.94
2023-05-03T11:49:38.775Z,1002.92
2023-05-03T11:50:38.785Z,1002.97
2023-05-03T11:51:38.778Z,1002.89
2023-05-03T11:52:38.765Z,1002.92
2023-05-03T11:53:38.770Z,1002.95
2023-05-03T11:54:38.773Z,1002.99
2023-05-03T11:55:38.717Z,1002.95
2023-05-03T11:56:38.743Z,1002.80
2023-05-03T11:57:38.723Z,1002.92
2023-05-03T11:58:38.727Z,1002.86
2023-05-03T11:59:38.720Z,1002.86
2023-05-03T12:00:38.684Z,1002.80
2023-05-03T12:01:38.811Z,1002.77
2023-05-03T12:02:38.780Z,1002.81
2023-05-03T12:03:38.785Z,1002.77
2023-05-03T12:04:39.141Z,1002.75
2023-05-03T12:05:39.387Z,1002.78
2023-05-03T12:06:39.909Z,1002.83